Time;durP1;ratioP1;P1;durP2;ratioP2;P2;SDS_P1;SDS_P2;PMS_P1;PMS_P2;Temp;Humidity;BMP_temperature;BMP_pressure;BME280_temperature;BME280_humidity;BME280_pressure;Samples;Min_cycle;Max_cycle;Signal;HPM_P1;HPM_P2
2022/04/25 00:02:16;;;;;;;4.97;3.80;;;8.60;99.90;;;;;;5009444;28;20199;-82
2022/04/25 00:04:42;;;;;;;5.50;3.57;;;8.50;99.90;;;;;;5009968;28;20198;-80
2022/04/25 00:07:07;;;;;;;5.97;3.37;;;8.50;99.90;;;;;;5009618;28;20191;-80
2022/04/25 00:09:33;;;;;;;4.27;3.30;;;8.50;99.90;;;;;;5009117;28;20216;-81
2022/04/25 00:11:59;;;;;;;5.20;3.87;;;8.60;99.90;;;;;;5009414;28;20673;-82
2022/04/25 00:14:24;;;;;;;5.13;4.10;;;8.60;99.90;;;;;;5027334;28;20191;-80
2022/04/25 00:16:55;;;;;;;5.97;3.90;;;8.50;99.90;;;;;;5009307;28;20832;-80
2022/04/25 00:19:23;;;;;;;8.43;4.20;;;8.50;99.90;;;;;;5009667;28;20175;-82
2022/04/25 00:21:51;;;;;;;7.10;3.70;;;8.60;99.90;;;;;;5027063;28;20238;-80
2022/04/25 00:24:17;;;;;;;4.53;3.73;;;8.60;99.90;;;;;;5027393;28;20262;-82
2022/04/25 00:26:43;;;;;;;8.40;4.33;;;8.50;99.90;;;;;;5025422;28;20557;-80
2022/04/25 00:29:08;;;;;;;5.83;3.93;;;8.40;99.90;;;;;;5027327;28;20209;-80
2022/04/25 00:31:34;;;;;;;4.80;3.53;;;8.40;99.90;;;;;;5027325;28;20558;-81
2022/04/25 00:33:59;;;;;;;5.43;3.63;;;8.40;99.90;;;;;;5027697;28;20194;-82
2022/04/25 00:36:25;;;;;;;5.07;3.87;;;8.40;99.90;;;;;;5027070;28;20216;-82
2022/04/25 00:38:50;;;;;;;5.33;3.93;;;8.40;99.90;;;;;;5009451;28;20204;-82
2022/04/25 00:41:16;;;;;;;5.50;4.07;;;8.40;99.90;;;;;;5008840;28;20210;-81
2022/04/25 00:43:42;;;;;;;4.60;4.00;;;8.40;99.90;;;;;;5028695;28;20261;-80
2022/04/25 00:46:22;;;;;;;6.37;3.80;;;8.20;99.90;;;;;;5012946;28;20986;-80
2022/04/25 00:48:48;;;;;;;5.83;4.77;;;8.30;99.90;;;;;;5030790;28;20186;-82
2022/04/25 00:51:15;;;;;;;8.70;4.43;;;8.20;99.90;;;;;;5031134;28;20288;-81
2022/04/25 00:53:41;;;;;;;7.13;4.70;;;8.10;99.90;;;;;;5029456;28;20193;-80
2022/04/25 00:56:08;;;;;;;4.77;3.70;;;7.90;99.90;;;;;;5012408;28;20207;-81
2022/04/25 00:58:34;;;;;;;7.20;3.93;;;7.80;99.90;;;;;;5031610;28;20186;-80
2022/04/25 01:00:59;;;;;;;6.43;3.97;;;7.70;99.90;;;;;;5030481;28;20584;-81
2022/04/25 01:03:25;;;;;;;4.63;3.67;;;7.70;99.90;;;;;;5013090;28;20190;-81
2022/04/25 01:05:52;;;;;;;7.77;4.30;;;7.80;99.90;;;;;;5013187;28;20190;-81
2022/04/25 01:08:19;;;;;;;6.10;3.73;;;7.80;99.90;;;;;;5011857;28;20266;-80
2022/04/25 01:10:44;;;;;;;4.93;3.90;;;7.70;99.90;;;;;;5031134;28;20210;-81
2022/04/25 01:13:13;;;;;;;4.87;3.67;;;7.80;99.90;;;;;;5012635;28;20183;-81
2022/04/25 01:15:39;;;;;;;4.37;3.17;;;7.90;99.90;;;;;;5011379;28;20183;-81
2022/04/25 01:18:05;;;;;;;4.33;3.40;;;7.90;99.90;;;;;;5011869;28;20218;-81
2022/04/25 01:20:31;;;;;;;3.93;3.00;;;7.80;99.90;;;;;;5029749;28;20207;-82
2022/04/25 01:29:14;;;;;;;4.60;3.70;;;7.90;99.90;;;;;;5029308;28;20233;-79
2022/04/25 01:31:40;;;;;;;3.97;3.30;;;7.80;99.90;;;;;;5027008;28;20206;-80
2022/04/25 01:34:06;;;;;;;4.37;3.40;;;7.60;99.90;;;;;;5028883;28;20983;-80
2022/04/25 01:36:31;;;;;;;6.20;3.90;;;7.70;99.90;;;;;;5028164;28;20202;-80
2022/04/25 01:38:57;;;;;;;5.77;4.07;;;7.80;99.90;;;;;;5011200;28;20198;-81
2022/04/25 01:41:23;;;;;;;5.60;3.97;;;7.60;99.90;;;;;;5010807;28;20198;-80
2022/04/25 01:43:48;;;;;;;8.40;4.77;;;7.50;99.90;;;;;;5010855;28;20191;-80
2022/04/25 01:46:14;;;;;;;5.77;4.47;;;7.30;99.90;;;;;;5010287;28;20187;-79
2022/04/25 01:48:40;;;;;;;7.10;4.97;;;7.30;99.90;;;;;;5027010;28;20210;-80
2022/04/25 01:51:06;;;;;;;5.90;4.67;;;7.30;99.90;;;;;;5010393;28;20226;-80
2022/04/25 01:53:31;;;;;;;6.67;4.90;;;7.10;99.90;;;;;;5010626;28;20588;-80
2022/04/25 01:55:57;;;;;;;7.53;5.10;;;7.20;99.90;;;;;;5027600;28;20194;-80
2022/04/25 01:58:24;;;;;;;8.87;5.60;;;7.10;99.90;;;;;;5010299;28;20255;-81
2022/04/25 02:00:49;;;;;;;8.83;5.57;;;7.00;99.90;;;;;;5028364;28;20253;-79
2022/04/25 02:03:15;;;;;;;7.63;5.70;;;6.90;99.90;;;;;;5010746;28;20187;-80
2022/04/25 02:05:40;;;;;;;7.93;5.77;;;6.90;99.90;;;;;;5010236;28;20210;-80
2022/04/25 02:08:06;;;;;;;7.70;6.00;;;6.90;99.90;;;;;;5010168;28;20190;-82
2022/04/25 02:10:32;;;;;;;8.17;5.90;;;7.00;99.90;;;;;;5027536;28;20215;-80
2022/04/25 02:12:58;;;;;;;9.47;6.13;;;7.00;99.90;;;;;;5010132;28;20201;-81
2022/04/25 02:15:23;;;;;;;9.47;5.73;;;7.00;99.90;;;;;;5010409;28;20969;-79
2022/04/25 02:17:49;;;;;;;9.87;6.03;;;7.10;99.90;;;;;;5009755;28;20257;-80
2022/04/25 02:20:15;;;;;;;7.27;6.10;;;7.10;99.90;;;;;;5028265;28;20554;-80
2022/04/25 02:22:41;;;;;;;10.60;6.93;;;7.10;99.90;;;;;;5027271;28;20214;-80
2022/04/25 02:25:07;;;;;;;7.07;5.57;;;7.10;99.90;;;;;;5010264;28;20679;-79
2022/04/25 02:27:33;;;;;;;9.23;6.40;;;7.10;99.90;;;;;;5008906;28;20274;-80
2022/04/25 02:29:59;;;;;;;8.13;5.87;;;7.20;99.90;;;;;;5027093;28;20274;-80
2022/04/25 02:32:27;;;;;;;7.47;5.97;;;7.30;99.90;;;;;;5026857;28;21010;-81
2022/04/25 02:34:54;;;;;;;9.97;6.40;;;7.30;99.90;;;;;;5008946;28;20664;-80
2022/04/25 02:37:20;;;;;;;9.47;5.50;;;7.30;99.90;;;;;;5026344;28;20253;-81
2022/04/25 02:39:45;;;;;;;7.30;5.50;;;7.30;99.90;;;;;;5009366;28;20205;-82
2022/04/25 02:42:11;;;;;;;7.47;5.80;;;7.40;99.90;;;;;;5026375;28;20206;-80
2022/04/25 02:44:37;;;;;;;11.03;5.67;;;7.40;99.90;;;;;;5027503;28;20183;-80
2022/04/25 02:47:02;;;;;;;7.23;5.33;;;7.40;99.90;;;;;;5009879;28;20191;-81
2022/04/25 02:49:28;;;;;;;6.10;5.13;;;7.40;99.90;;;;;;5010505;28;20191;-82
2022/04/25 02:51:53;;;;;;;9.73;6.33;;;7.50;99.90;;;;;;5029314;28;20214;-79
2022/04/25 02:54:19;;;;;;;8.90;6.07;;;7.70;99.90;;;;;;5011080;28;20210;-82
2022/04/25 02:56:45;;;;;;;8.87;5.83;;;7.80;99.90;;;;;;5010838;28;20265;-81
2022/04/25 02:59:10;;;;;;;7.37;5.80;;;7.80;99.90;;;;;;5011839;28;20182;-80
2022/04/25 03:01:36;;;;;;;8.70;6.43;;;7.90;99.90;;;;;;5010581;28;20206;-82
2022/04/25 03:04:02;;;;;;;7.20;5.67;;;7.90;99.90;;;;;;5011814;28;20189;-80
2022/04/25 03:06:27;;;;;;;8.47;6.07;;;7.90;99.90;;;;;;5010128;28;20617;-81
2022/04/25 03:08:53;;;;;;;9.00;6.10;;;8.00;99.90;;;;;;5010398;28;20305;-82
2022/04/25 03:11:19;;;;;;;9.90;5.80;;;8.00;99.90;;;;;;5010026;28;20581;-81
2022/04/25 03:13:45;;;;;;;7.97;5.67;;;8.00;99.90;;;;;;5011187;28;20190;-81
2022/04/25 03:16:11;;;;;;;8.93;6.27;;;8.00;99.90;;;;;;5028520;28;20250;-80
2022/04/25 03:18:37;;;;;;;9.97;5.70;;;8.00;99.90;;;;;;5028299;28;20206;-79
2022/04/25 03:21:02;;;;;;;7.60;5.77;;;8.10;99.90;;;;;;5010505;28;20328;-84
2022/04/25 03:23:29;;;;;;;6.20;5.60;;;8.00;99.90;;;;;;5010522;28;20282;-82
2022/04/25 03:25:55;;;;;;;7.70;5.80;;;7.90;99.90;;;;;;5028079;28;20183;-80
2022/04/25 03:28:21;;;;;;;7.00;5.37;;;7.90;99.90;;;;;;5028239;28;21203;-80
2022/04/25 03:30:46;;;;;;;7.90;5.73;;;7.90;99.90;;;;;;5010662;28;20289;-81
2022/04/25 03:33:12;;;;;;;10.43;6.67;;;7.80;99.90;;;;;;5010114;28;20179;-85
2022/04/25 03:35:40;;;;;;;6.97;5.50;;;7.90;99.90;;;;;;5027926;28;20182;-82
2022/04/25 03:38:06;;;;;;;8.07;6.53;;;8.00;99.90;;;;;;5025867;28;20223;-83
2022/04/25 03:40:33;;;;;;;8.43;6.37;;;7.90;99.90;;;;;;5010364;28;20691;-81
2022/04/25 03:42:59;;;;;;;9.03;6.77;;;7.80;99.90;;;;;;5010326;28;20194;-82
2022/04/25 03:45:24;;;;;;;7.50;4.83;;;7.90;99.90;;;;;;5027962;28;20183;-82
2022/04/25 03:47:50;;;;;;;7.70;5.90;;;7.70;99.90;;;;;;5027410;28;20191;-81
2022/04/25 03:50:16;;;;;;;6.93;5.17;;;7.60;99.90;;;;;;5010206;28;20191;-84
2022/04/25 03:52:44;;;;;;;7.93;5.27;;;7.40;99.90;;;;;;5027546;28;20183;-83
2022/04/25 03:57:59;;;;;;;5.97;4.93;;;6.90;99.90;;;;;;5027462;28;20440;-81
2022/04/25 04:00:25;;;;;;;5.57;4.50;;;6.80;99.90;;;;;;5009879;28;20211;-85
2022/04/25 04:02:51;;;;;;;6.23;4.57;;;6.80;99.90;;;;;;5025630;28;20676;-83
2022/04/25 04:05:18;;;;;;;6.57;4.20;;;6.90;99.90;;;;;;5027021;28;20198;-81
2022/04/25 04:07:43;;;;;;;4.60;4.20;;;6.90;99.90;;;;;;5008679;28;20700;-83
2022/04/25 04:10:09;;;;;;;6.93;5.00;;;6.90;99.90;;;;;;5008836;28;20293;-83
2022/04/25 04:12:35;;;;;;;5.07;4.43;;;6.90;99.90;;;;;;5009026;28;20487;-83
2022/04/25 04:15:07;;;;;;;11.03;6.73;;;7.00;99.90;;;;;;5009454;28;20190;-83
2022/04/25 04:17:34;;;;;;;7.23;5.03;;;7.00;99.90;;;;;;5008688;28;20240;-84
2022/04/25 04:20:00;;;;;;;3.77;3.30;;;6.90;99.90;;;;;;5013802;28;20245;-80
2022/04/25 04:22:30;;;;;;;3.13;2.70;;;7.00;99.90;;;;;;5013010;28;20214;-82
2022/04/25 04:25:03;;;;;;;3.90;3.10;;;7.00;99.90;;;;;;5031233;28;20194;-81
2022/04/25 04:27:32;;;;;;;3.27;2.97;;;7.00;99.90;;;;;;5012470;28;20186;-81
2022/04/25 04:30:04;;;;;;;3.03;2.63;;;7.00;99.90;;;;;;5013228;28;20678;-81
2022/04/25 04:32:30;;;;;;;4.10;2.90;;;7.00;99.90;;;;;;5028422;28;20233;-83
2022/04/25 04:34:57;;;;;;;4.47;3.07;;;7.00;99.90;;;;;;5012096;28;20191;-83
2022/04/25 04:37:33;;;;;;;3.50;3.20;;;7.00;99.90;;;;;;5011552;28;20230;-82
2022/04/25 04:42:44;;;;;;;4.67;3.77;;;7.00;99.90;;;;;;5029437;28;20210;-81
2022/04/25 04:45:13;;;;;;;4.80;3.33;;;6.90;99.90;;;;;;5012291;28;20182;-80
2022/04/25 04:47:40;;;;;;;5.20;3.33;;;7.00;99.90;;;;;;5028816;28;20186;-80
2022/04/25 04:50:08;;;;;;;3.17;2.87;;;7.00;99.90;;;;;;5012322;28;20222;-84
2022/04/25 04:52:33;;;;;;;4.20;2.40;;;7.10;99.90;;;;;;5028731;28;20183;-81
2022/04/25 04:54:59;;;;;;;4.60;3.03;;;7.20;99.90;;;;;;5011543;28;20264;-81
2022/04/25 04:57:25;;;;;;;3.70;3.00;;;7.30;99.90;;;;;;5010803;28;20422;-81
2022/04/25 04:59:50;;;;;;;4.33;2.97;;;7.20;99.90;;;;;;5011947;28;21216;-81
2022/04/25 05:02:17;;;;;;;2.87;2.40;;;7.20;99.90;;;;;;5011523;28;20203;-80
2022/04/25 05:04:43;;;;;;;2.97;2.53;;;7.30;99.90;;;;;;5011367;28;20183;-81
2022/04/25 05:07:09;;;;;;;3.47;2.57;;;7.30;99.90;;;;;;5011086;28;20194;-81
2022/04/25 05:09:35;;;;;;;2.37;2.17;;;7.30;99.90;;;;;;5011361;28;20573;-83
2022/04/25 05:12:01;;;;;;;2.87;2.27;;;7.30;99.90;;;;;;5026755;28;20297;-80
2022/04/25 05:14:26;;;;;;;2.93;2.60;;;7.40;99.90;;;;;;5010382;28;20218;-82
2022/04/25 05:16:52;;;;;;;2.90;2.40;;;7.40;99.90;;;;;;5010259;28;20272;-80
2022/04/25 05:19:18;;;;;;;3.33;2.77;;;7.40;99.90;;;;;;5028279;28;20195;-80
2022/04/25 05:21:43;;;;;;;2.80;2.53;;;7.40;99.90;;;;;;5028698;28;20215;-82
2022/04/25 05:24:09;;;;;;;5.20;3.43;;;7.40;99.90;;;;;;5028924;28;20187;-80
2022/04/25 05:26:35;;;;;;;3.40;2.83;;;7.30;99.90;;;;;;5010464;28;20572;-81
2022/04/25 05:29:01;;;;;;;3.67;3.20;;;7.40;99.90;;;;;;5009431;28;20187;-81
2022/04/25 05:31:26;;;;;;;3.87;2.83;;;7.40;99.90;;;;;;5027340;28;20695;-83
2022/04/25 05:33:52;;;;;;;3.53;3.23;;;7.40;99.90;;;;;;5027389;28;20249;-82
2022/04/25 05:36:17;;;;;;;4.43;3.40;;;7.50;99.90;;;;;;5010235;28;20211;-81
2022/04/25 05:38:43;;;;;;;4.40;3.30;;;7.50;99.90;;;;;;5009748;28;20206;-80
2022/04/25 05:41:10;;;;;;;5.30;3.20;;;7.50;99.90;;;;;;5027963;28;20608;-82
2022/04/25 05:43:37;;;;;;;4.93;3.87;;;7.50;99.90;;;;;;5010167;28;20179;-81
2022/04/25 05:46:03;;;;;;;4.27;3.33;;;7.40;99.90;;;;;;5010157;28;20182;-81
2022/04/25 05:53:58;;;;;;;4.53;3.70;;;7.30;99.90;;;;;;5028212;28;20190;-81
2022/04/25 05:56:24;;;;;;;4.80;4.37;;;7.30;99.90;;;;;;5009790;28;20210;-81
2022/04/25 05:58:49;;;;;;;5.23;4.03;;;7.30;99.90;;;;;;5009361;28;20186;-81
2022/04/25 06:01:15;;;;;;;5.80;4.17;;;7.30;99.90;;;;;;5009423;28;20238;-82
2022/04/25 06:03:40;;;;;;;4.30;3.90;;;7.40;99.90;;;;;;5010003;28;20171;-83
2022/04/25 06:06:06;;;;;;;5.20;4.13;;;7.40;99.90;;;;;;5009705;28;20660;-80
2022/04/25 06:08:32;;;;;;;5.57;4.50;;;7.40;99.90;;;;;;5009529;28;20255;-83
2022/04/25 06:10:57;;;;;;;6.47;4.47;;;7.40;99.90;;;;;;5026866;28;20763;-81
2022/04/25 06:13:25;;;;;;;7.27;4.63;;;7.50;99.90;;;;;;5009401;28;20649;-81
2022/04/25 06:15:51;;;;;;;6.17;4.50;;;7.50;99.90;;;;;;5009885;28;20649;-82
2022/04/25 06:18:17;;;;;;;5.40;4.20;;;7.50;99.90;;;;;;5009427;28;20787;-79
2022/04/25 06:20:43;;;;;;;5.83;4.40;;;7.60;99.90;;;;;;5028127;28;20257;-84
2022/04/25 06:23:08;;;;;;;6.07;4.83;;;7.70;99.90;;;;;;5028383;28;20341;-82
2022/04/25 06:25:37;;;;;;;5.80;4.93;;;7.80;99.90;;;;;;5011754;28;20546;-84
2022/04/25 06:28:03;;;;;;;6.00;4.87;;;7.70;99.90;;;;;;5010452;28;20644;-81
2022/04/25 06:30:29;;;;;;;6.07;5.07;;;7.80;99.90;;;;;;5010534;28;20203;-81
2022/04/25 06:32:57;;;;;;;6.30;5.43;;;8.00;99.90;;;;;;5010935;28;20183;-81
2022/04/25 06:35:23;;;;;;;7.27;5.97;;;8.10;99.90;;;;;;5010445;28;20179;-82
2022/04/25 06:37:49;;;;;;;5.93;4.50;;;8.10;99.90;;;;;;5010021;28;20722;-80
2022/04/25 06:40:16;;;;;;;6.60;5.23;;;8.20;99.90;;;;;;5010416;28;20677;-80
2022/04/25 06:42:41;;;;;;;6.23;4.70;;;8.20;99.90;;;;;;5028054;28;20181;-79
2022/04/25 06:45:08;;;;;;;9.27;5.00;;;8.10;99.90;;;;;;5027673;28;20294;-80
2022/04/25 06:47:34;;;;;;;5.83;4.20;;;8.10;99.90;;;;;;5024642;28;20194;-79
2022/04/25 06:49:59;;;;;;;5.77;4.87;;;8.10;99.90;;;;;;5006872;28;20491;-79
2022/04/25 06:52:25;;;;;;;6.00;4.77;;;8.10;99.90;;;;;;5006790;28;20290;-81
2022/04/25 06:54:51;;;;;;;8.63;5.60;;;8.00;99.90;;;;;;5006877;28;20210;-80
2022/04/25 06:57:17;;;;;;;10.37;6.13;;;7.70;99.90;;;;;;5028141;28;20194;-78
2022/04/25 06:59:44;;;;;;;9.63;6.50;;;7.70;99.90;;;;;;5027844;28;20182;-77
2022/04/25 07:02:10;;;;;;;9.03;5.97;;;7.70;99.90;;;;;;5027527;28;20210;-77
2022/04/25 07:04:36;;;;;;;9.43;6.20;;;7.60;99.90;;;;;;5008827;28;20564;-78
2022/04/25 07:07:02;;;;;;;8.00;6.03;;;7.50;99.90;;;;;;5025169;28;20250;-77
2022/04/25 07:09:28;;;;;;;8.10;6.13;;;7.50;99.90;;;;;;5025787;28;20677;-78
2022/04/25 07:11:53;;;;;;;9.90;6.03;;;7.50;99.90;;;;;;5007403;28;20218;-78
2022/04/25 07:14:21;;;;;;;7.87;5.57;;;7.50;99.90;;;;;;5008439;28;20649;-78
2022/04/25 07:16:56;;;;;;;9.97;5.77;;;7.40;99.90;;;;;;5006988;28;20210;-78
2022/04/25 07:19:22;;;;;;;9.17;6.07;;;7.30;99.90;;;;;;5025746;28;20166;-77
2022/04/25 07:30:01;;;;;;;7.40;5.20;;;7.80;99.90;;;;;;5025980;28;20228;-78
2022/04/25 07:32:27;;;;;;;9.03;5.47;;;7.80;99.90;;;;;;5026876;28;20218;-81
2022/04/25 07:34:53;;;;;;;8.43;5.83;;;7.90;99.90;;;;;;5008478;28;20698;-81
2022/04/25 07:37:22;;;;;;;7.23;6.17;;;7.90;99.90;;;;;;5007366;28;20214;-82
2022/04/25 07:39:49;;;;;;;8.27;5.87;;;7.70;99.90;;;;;;5008467;28;20628;-79
2022/04/25 07:42:15;;;;;;;7.40;5.07;;;7.60;99.90;;;;;;5007387;28;20206;-82
2022/04/25 07:44:42;;;;;;;8.80;5.63;;;7.90;99.90;;;;;;5007843;28;20610;-81
2022/04/25 07:47:08;;;;;;;6.43;5.07;;;7.90;99.90;;;;;;4991570;28;20202;-81
2022/04/25 07:49:34;;;;;;;6.70;5.33;;;8.00;99.90;;;;;;5007196;28;20190;-83
2022/04/25 07:52:00;;;;;;;7.80;6.20;;;8.20;99.90;;;;;;5024934;28;20841;-81
2022/04/25 07:54:26;;;;;;;6.73;4.93;;;8.30;99.90;;;;;;5008111;28;20190;-80
2022/04/25 07:56:51;;;;;;;8.73;5.67;;;8.30;99.90;;;;;;5007761;28;20210;-80
2022/04/25 07:59:18;;;;;;;8.43;5.83;;;8.10;99.90;;;;;;5007246;28;20235;-80
2022/04/25 08:01:44;;;;;;;10.07;6.03;;;8.00;99.90;;;;;;5007728;28;20217;-80
2022/04/25 08:04:11;;;;;;;6.87;5.50;;;8.00;99.90;;;;;;5008214;28;20179;-81
2022/04/25 08:06:37;;;;;;;7.07;5.37;;;8.00;99.90;;;;;;5007155;28;20581;-80
2022/04/25 08:09:03;;;;;;;6.80;5.30;;;8.00;99.90;;;;;;5007679;28;20198;-79
2022/04/25 08:11:29;;;;;;;6.10;5.50;;;8.20;99.90;;;;;;5007066;28;20946;-80
2022/04/25 08:19:23;;;;;;;7.60;5.20;;;8.20;99.90;;;;;;5025512;28;20277;-79
2022/04/25 08:21:49;;;;;;;7.80;5.43;;;8.30;99.90;;;;;;5025407;28;20281;-80
2022/04/25 08:24:15;;;;;;;9.77;8.17;;;8.30;99.90;;;;;;5005383;28;20527;-82
2022/04/25 08:26:41;;;;;;;31.30;28.20;;;8.20;99.90;;;;;;5007067;28;20211;-81
2022/04/25 08:29:07;;;;;;;37.30;33.30;;;8.20;99.90;;;;;;5024385;28;20252;-81
2022/04/25 08:31:35;;;;;;;8.97;7.10;;;8.20;99.90;;;;;;5006677;28;20692;-79
2022/04/25 08:34:05;;;;;;;9.13;7.27;;;8.20;99.90;;;;;;5007702;28;20187;-79
2022/04/25 08:36:32;;;;;;;10.57;9.60;;;8.10;99.90;;;;;;5006567;28;20210;-79
2022/04/25 08:38:58;;;;;;;7.40;5.40;;;8.20;99.90;;;;;;5023987;28;20207;-79
2022/04/25 08:41:29;;;;;;;8.77;5.80;;;8.40;99.90;;;;;;5005989;28;20723;-79
2022/04/25 08:43:55;;;;;;;7.63;6.10;;;8.50;99.90;;;;;;5023728;28;20196;-80
2022/04/25 08:46:22;;;;;;;7.90;6.13;;;8.50;99.90;;;;;;5006456;28;20183;-80
2022/04/25 08:48:52;;;;;;;9.63;6.57;;;8.60;99.90;;;;;;5006395;28;20222;-80
2022/04/25 08:51:20;;;;;;;10.13;7.97;;;8.70;99.90;;;;;;5005810;28;20250;-80
2022/04/25 08:53:46;;;;;;;7.20;5.77;;;8.80;99.90;;;;;;5006173;28;20191;-80
2022/04/25 08:56:13;;;;;;;7.07;5.33;;;8.80;99.90;;;;;;5023652;28;20214;-81
2022/04/25 08:58:46;;;;;;;10.03;6.40;;;8.80;99.90;;;;;;5021684;28;20210;-80
2022/04/25 09:01:12;;;;;;;9.17;6.47;;;8.80;99.90;;;;;;5007260;28;20195;-81
2022/04/25 09:03:38;;;;;;;9.70;5.70;;;8.70;99.90;;;;;;5013477;28;20213;-83
2022/04/25 09:06:08;;;;;;;8.03;5.97;;;8.80;99.90;;;;;;5017687;28;20191;-83
2022/04/25 09:08:34;;;;;;;8.57;5.60;;;8.90;99.90;;;;;;5017289;28;20183;-82
2022/04/25 09:13:46;;;;;;;6.60;5.87;;;8.90;99.90;;;;;;5034078;28;20249;-84
2022/04/25 09:16:16;;;;;;;5.97;5.27;;;9.10;99.90;;;;;;5017112;28;20601;-83
2022/04/25 09:18:42;;;;;;;7.93;5.40;;;9.10;99.90;;;;;;5032747;28;20214;-84
2022/04/25 09:21:13;;;;;;;5.73;4.30;;;9.20;99.90;;;;;;5032456;28;20348;-82
2022/04/25 09:23:40;;;;;;;7.00;5.70;;;9.30;99.90;;;;;;5035355;28;20561;-82
2022/04/25 09:26:11;;;;;;;8.93;5.23;;;9.20;99.90;;;;;;4998060;28;20201;-84
2022/04/25 09:28:58;;;;;;;7.63;5.20;;;9.30;99.90;;;;;;5030190;28;20554;-83
2022/04/25 09:31:27;;;;;;;8.07;5.37;;;9.00;99.90;;;;;;5030455;28;20205;-84
2022/04/25 09:34:12;;;;;;;7.90;5.40;;;9.00;99.90;;;;;;5011505;28;20191;-83
2022/04/25 09:36:48;;;;;;;8.97;5.47;;;8.80;99.90;;;;;;5009407;28;20206;-82
2022/04/25 09:39:28;;;;;;;8.67;5.80;;;8.80;99.90;;;;;;5009753;28;20670;-78
2022/04/25 09:41:53;;;;;;;8.03;5.40;;;8.80;99.90;;;;;;5009574;28;20990;-81
2022/04/25 09:44:19;;;;;;;7.83;6.03;;;9.00;99.90;;;;;;5007017;28;20222;-82
2022/04/25 09:46:48;;;;;;;8.97;5.60;;;8.60;99.90;;;;;;5006934;28;20198;-81
2022/04/25 09:49:23;;;;;;;6.33;4.77;;;8.80;99.90;;;;;;5007607;28;20179;-80
2022/04/25 09:52:08;;;;;;;7.57;6.57;;;9.00;99.90;;;;;;5026628;28;20273;-81
2022/04/25 09:54:39;;;;;;;7.60;6.80;;;9.00;99.90;;;;;;5025747;28;20194;-81
2022/04/25 09:57:05;;;;;;;9.87;8.50;;;9.20;99.90;;;;;;5008039;28;20209;-82
2022/04/25 09:59:43;;;;;;;8.57;6.10;;;9.60;99.90;;;;;;5008672;28;20183;-81
2022/04/25 10:02:09;;;;;;;9.77;6.90;;;9.60;99.90;;;;;;5009972;28;20228;-80
2022/04/25 10:04:36;;;;;;;14.43;11.03;;;9.50;99.90;;;;;;5011597;28;20673;-80
2022/04/25 10:07:04;;;;;;;11.43;9.80;;;9.60;99.90;;;;;;5015417;28;20213;-80
2022/04/25 10:09:32;;;;;;;15.20;13.67;;;9.70;99.90;;;;;;5029368;28;20179;-81
2022/04/25 10:12:00;;;;;;;7.63;6.27;;;9.70;99.90;;;;;;5027493;28;20627;-80
2022/04/25 10:14:27;;;;;;;11.03;8.73;;;9.70;99.90;;;;;;5027128;28;20208;-81
2022/04/25 10:16:55;;;;;;;7.27;5.33;;;9.80;99.90;;;;;;5027119;28;20268;-82
2022/04/25 10:19:21;;;;;;;10.37;8.23;;;9.60;99.90;;;;;;5009731;28;20172;-83
2022/04/25 10:21:48;;;;;;;7.53;6.33;;;9.60;99.90;;;;;;5009597;28;21115;-81
2022/04/25 10:24:18;;;;;;;30.40;21.83;;;9.70;99.90;;;;;;5008939;28;20175;-81
2022/04/25 10:26:43;;;;;;;88.83;76.70;;;9.60;99.90;;;;;;5024735;28;20191;-81
2022/04/25 10:29:13;;;;;;;19.13;14.43;;;9.40;99.90;;;;;;5008661;28;20193;-81
2022/04/25 10:31:42;;;;;;;21.13;16.30;;;9.40;99.90;;;;;;5009191;28;20226;-81
2022/04/25 10:34:09;;;;;;;20.10;16.33;;;9.50;99.90;;;;;;5026087;28;20193;-81
2022/04/25 10:36:39;;;;;;;9.53;6.80;;;9.40;99.90;;;;;;5023377;28;20249;-81
2022/04/25 10:39:13;;;;;;;9.87;6.63;;;9.20;99.90;;;;;;5006326;28;20282;-81
2022/04/25 10:44:28;;;;;;;9.30;6.93;;;9.20;99.90;;;;;;5024759;28;20174;-80
2022/04/25 10:47:06;;;;;;;18.00;15.87;;;9.50;99.90;;;;;;5008879;28;20191;-81
2022/04/25 10:49:34;;;;;;;9.60;8.53;;;9.60;99.90;;;;;;5026310;28;20178;-81
2022/04/25 10:52:01;;;;;;;6.80;5.60;;;9.60;99.90;;;;;;5008490;28;20288;-80
2022/04/25 10:54:30;;;;;;;8.43;6.30;;;10.00;99.90;;;;;;5008713;28;20187;-80
2022/04/25 10:57:07;;;;;;;14.20;11.07;;;10.00;99.90;;;;;;5026885;28;20203;-81
2022/04/25 10:59:33;;;;;;;10.40;7.40;;;10.00;99.90;;;;;;5026164;28;20205;-81
2022/04/25 11:01:59;;;;;;;19.43;15.17;;;10.40;99.90;;;;;;5006692;28;20203;-82
2022/04/25 11:04:25;;;;;;;12.03;7.83;;;10.20;99.90;;;;;;5008412;28;20672;-80
2022/04/25 11:07:20;;;;;;;8.87;6.77;;;10.30;99.90;;;;;;5025970;28;20194;-81
2022/04/25 11:09:46;;;;;;;8.93;6.30;;;10.30;99.90;;;;;;5008861;28;21050;-81
2022/04/25 11:12:11;;;;;;;12.40;9.03;;;10.50;99.90;;;;;;5008748;28;20198;-82
2022/04/25 11:14:37;;;;;;;9.17;6.73;;;10.70;99.90;;;;;;5008798;28;20661;-82
2022/04/25 11:17:13;;;;;;;9.20;6.20;;;11.00;99.90;;;;;;5026024;28;20222;-81
2022/04/25 11:19:45;;;;;;;8.43;6.37;;;11.10;99.90;;;;;;5008373;28;20545;-81
2022/04/25 11:22:27;;;;;;;8.73;6.45;;;11.20;99.90;;;;;;5026221;28;20204;-81
2022/04/25 11:24:53;;;;;;;7.63;6.30;;;11.20;99.90;;;;;;5006492;28;20211;-80
2022/04/25 11:27:21;;;;;;;7.40;5.97;;;10.90;99.90;;;;;;5003430;28;20199;-80
2022/04/25 11:30:14;;;;;;;10.40;7.00;;;11.10;99.90;;;;;;5002678;28;20194;-81
2022/04/25 11:32:43;;;;;;;7.25;6.03;;;11.40;99.90;;;;;;5002715;28;20667;-81
2022/04/25 11:35:09;;;;;;;7.43;5.40;;;11.80;99.90;;;;;;5002429;28;20197;-80
2022/04/25 11:37:35;;;;;;;6.75;5.57;;;11.70;99.90;;;;;;5001680;28;20316;-80
2022/04/25 11:40:06;;;;;;;6.07;5.38;;;11.80;99.90;;;;;;5019663;28;20179;-80
2022/04/25 11:42:35;;;;;;;7.03;5.75;;;11.70;99.90;;;;;;5003340;28;20570;-80
2022/04/25 11:45:01;;;;;;;7.65;5.60;;;12.00;99.90;;;;;;5021257;28;20183;-80
2022/04/25 11:47:29;;;;;;;10.65;5.47;;;12.00;99.90;;;;;;5020911;28;20210;-82
2022/04/25 11:49:59;;;;;;;31.08;23.25;;;12.00;99.90;;;;;;5002481;28;20194;-81
2022/04/25 11:52:26;;;;;;;13.40;10.48;;;12.00;99.90;;;;;;5020644;28;20526;-81
2022/04/25 11:54:52;;;;;;;7.97;5.60;;;12.00;99.90;;;;;;5003435;28;20186;-81
2022/04/25 11:57:17;;;;;;;9.90;7.95;;;12.10;99.90;;;;;;5003392;28;20203;-82
2022/04/25 11:59:43;;;;;;;7.97;6.53;;;12.20;99.90;;;;;;5022371;28;20657;-82
2022/04/25 12:02:09;;;;;;;14.05;11.93;;;12.30;99.90;;;;;;5001763;28;20238;-81
2022/04/25 12:04:34;;;;;;;8.10;6.50;;;12.40;99.90;;;;;;5004023;28;20206;-81
2022/04/25 12:07:07;;;;;;;6.05;5.18;;;12.60;99.90;;;;;;5003260;28;20190;-80
2022/04/25 12:15:34;;;;;;;10.48;6.35;;;12.30;99.90;;;;;;5039092;28;20279;-82
2022/04/25 12:18:18;;;;;;;9.30;5.95;;;12.20;99.90;;;;;;5023071;28;20209;-82
2022/04/25 12:20:59;;;;;;;72.80;38.65;;;12.30;99.90;;;;;;5022043;28;20224;-82
2022/04/25 12:23:28;;;;;;;9.32;6.07;;;12.50;99.90;;;;;;5036373;28;20527;-81
2022/04/25 12:25:55;;;;;;;7.53;5.65;;;12.20;99.90;;;;;;5018240;28;20194;-81
2022/04/25 12:28:23;;;;;;;8.45;6.70;;;12.40;99.90;;;;;;5037615;28;20189;-81
2022/04/25 12:30:54;;;;;;;10.40;9.27;;;12.60;99.90;;;;;;5013721;28;20202;-82
2022/04/25 12:33:23;;;;;;;10.38;8.88;;;12.80;99.90;;;;;;5027002;28;20537;-82
2022/04/25 12:35:51;;;;;;;10.48;8.80;;;12.60;99.90;;;;;;5027015;28;20625;-82
2022/04/25 12:38:51;;;;;;;11.50;10.32;;;12.60;99.90;;;;;;5008637;28;20214;-81
2022/04/25 12:41:24;;;;;;;8.25;6.28;;;12.20;99.90;;;;;;5031168;28;20669;-82
2022/04/25 12:43:53;;;;;;;10.70;6.32;;;12.00;99.90;;;;;;5014485;28;20186;-82
2022/04/25 12:46:35;;;;;;;9.23;5.88;;;12.40;99.90;;;;;;5013831;28;20178;-83
2022/04/25 12:49:16;;;;;;;7.72;6.20;;;12.80;99.90;;;;;;5014478;28;20187;-82
2022/04/25 12:51:50;;;;;;;8.57;6.97;;;13.00;99.90;;;;;;5013943;28;20199;-83
2022/04/25 12:54:37;;;;;;;8.52;7.20;;;13.20;99.90;;;;;;5014127;28;20190;-82
2022/04/25 12:57:06;;;;;;;6.05;5.32;;;13.30;99.90;;;;;;5013801;28;20222;-82
2022/04/25 12:59:35;;;;;;;10.65;8.15;;;13.20;99.90;;;;;;5013248;28;20264;-83
2022/04/25 13:02:09;;;;;;;8.55;5.85;;;13.20;99.90;;;;;;5030885;28;20207;-82
2022/04/25 13:04:56;;;;;;;9.20;7.43;;;13.40;99.90;;;;;;5032755;28;20649;-82
2022/04/25 13:07:28;;;;;;;8.15;6.05;;;13.70;99.90;;;;;;5019357;28;20195;-82
2022/04/25 13:09:56;;;;;;;7.45;5.90;;;13.60;99.90;;;;;;5014629;28;20657;-82
2022/04/25 13:12:24;;;;;;;6.78;5.60;;;13.40;99.90;;;;;;5032515;28;20198;-81
2022/04/25 13:14:50;;;;;;;7.32;5.32;;;13.30;99.90;;;;;;5031167;28;20186;-82
2022/04/25 13:17:16;;;;;;;6.43;5.80;;;13.50;99.90;;;;;;5013971;28;20203;-83
2022/04/25 13:19:43;;;;;;;8.05;5.88;;;13.80;99.90;;;;;;5011623;28;20229;-82
2022/04/25 13:22:08;;;;;;;8.07;5.65;;;14.00;99.90;;;;;;5012839;28;20282;-80
2022/04/25 13:24:35;;;;;;;8.80;6.10;;;14.10;99.90;;;;;;5013995;28;20274;-83
2022/04/25 13:27:02;;;;;;;7.15;5.50;;;14.20;99.90;;;;;;5013484;28;20190;-84
2022/04/25 13:29:28;;;;;;;23.52;18.20;;;14.50;99.90;;;;;;5014245;28;20197;-83
2022/04/25 13:31:54;;;;;;;7.78;6.10;;;14.50;99.90;;;;;;5013027;28;20274;-82
2022/04/25 13:34:19;;;;;;;7.22;5.45;;;14.50;99.90;;;;;;5014986;28;20186;-80
2022/04/25 13:36:45;;;;;;;7.75;5.72;;;14.60;99.90;;;;;;5014423;28;20241;-85
2022/04/25 13:39:10;;;;;;;7.70;5.38;;;14.60;99.90;;;;;;5015564;28;20186;-82